PKWAPTPN

Guest
Details From PKWA - BUCHOLZ AAF
To PTPN - POHNPEI INTL
Flight Number -
Tags generated
Created
Modified
Stats Distance 579 nm / 1,073 km
Max Altitude 34,000 ft / 10,363 m
Waypoints 5
Social Downloads 0
Likes 0
Share VATSIM

Download

Looking for another format? Having issues loading an existing format? Contact us
Advertisement - Login to hide

Notes

Basic altitude profile: - Ascent Rate: 2500ft/min - Ascent Speed: 250kts - Cruise Altitude: 35000ft - Cruise Speed: 420kts - Descent Rate: 1500ft/min - Descent Speed: 250kts Options: - Use NATs: yes - Use PACOTS: yes - Use low airways: yes - Use high airways: yes

Route

PKWA NDJNB R584 PNI PTPN

ID Type Via Altitude Latitude Longitude Leg Dist Tot Dist Heading (true) Name
O PKWA APT - 0 ft / 0 m 8.72012˚ 167.73166˚ - 0 nm - BUCHOLZ AAF
NDJNB FIX - 0 ft / 0 m 8.72088˚ 167.72776˚ 0 nm 0 nm 281° / 281° -
LOOIS FIX R584 (AWY-LO) 34,000 ft / 10,363 m 8.20167˚ 164.74833˚ 179 nm 179 nm 260° / 260° -
PNI NDB R584 (AWY-LO) 18,000 ft / 5,486 m 6.97197˚ 158.18497˚ 397 nm 577 nm 260° / 259° POHNPEI NDB
O PTPN APT - 0 ft / 0 m 6.98523˚ 158.20910˚ 1 nm 579 nm 61° / 61° POHNPEI INTL

Altitude Profile

Advertisement - Login to hide

Weather


0- 5 10 15 20 25 30 35+ Temperature / ° C

Clouds and Precipitation
Forecast for 2017-12-11 12:00 UTC. Updated 27 minutes ago

Ground ~20,000 ft ~40,000 ft Winds

PKWA

Details ICAO PKWA (KWA)
Name BUCHOLZ AAF
Region Marshall Islands
Timezone Pacific/Kwajalein (UTC+12.0)
Stats Elevation 9 ft / 3 m (AMSL)
Location 8.720121° 167.731662°
Runways 1
Magnetic Variation 7.617° E

METAR

PKWA 110740Z AUTO 08015KT 10SM SCT023 SCT032 SCT038 29/24 A2980 RMK AO2 T02860243

Decode

TAF

TAF PKWA 110525Z 1106/1206 07019KT P6SM VCSH FEW018 SCT030 SCT120

Decode

Departure Runways

ID Width Length Bearing (true) Bearing (mag) Surface Threshold Offset Overrun Length
06 198 ft / 60 m 6,666 ft / 2,032 m 72.67° 65.05° Asphalt 0 ft / 0 m 0 ft / 0 m
24 198 ft / 60 m 6,666 ft / 2,032 m 252.67° 245.05° Asphalt 0 ft / 0 m 0 ft / 0 m

PTPN

Details ICAO PTPN (PNI)
Name POHNPEI INTL
Region Federated States of Micronesia, Palau
Timezone Pacific/Pohnpei (UTC+11.0)
Stats Elevation 10 ft / 3 m (AMSL)
Location 6.985226° 158.209103°
Runways 1
Magnetic Variation 5.761° E

METAR

Not found

TAF

TAF PTPN 102331Z 1100/1124 11010KT P6SM VCSH SCT018 BKN130

Decode

Destination Runways

ID Width Length Bearing (true) Bearing (mag) Surface Threshold Offset Overrun Length
09 151 ft / 46 m 6,023 ft / 1,836 m 90.31° 84.55° Asphalt 0 ft / 0 m 69 ft / 21 m
27 151 ft / 46 m 6,023 ft / 1,836 m 270.32° 264.56° Asphalt 0 ft / 0 m 69 ft / 21 m